| time (UTC) | temp F | wind direction | speed knots | gust knots | rain 1hr in | rain 24hr in | rain mn in | humidity % | barometer mb |
| 20260506124006 | 53 | 27 | 0.9 | 4.3 | 0.00 | 0.03 | 0.00 | 81 | 1010.6 |
| 20260506123006 | 53 | 34 | 2.6 | 4.3 | 0.00 | 0.03 | 0.00 | 81 | 1010.5 |
| 20260506122506 | 53 | 36 | 2.6 | 5.2 | 0.00 | 0.03 | 0.00 | 80 | 1010.4 |
| 20260506121508 | 54 | 32 | 3.5 | 7.0 | 0.00 | 0.03 | 0.00 | 80 | 1010.4 |
| 20260506120506 | 54 | 22 | 3.5 | 7.0 | 0.00 | 0.03 | 0.00 | 78 | 1010.4 |
| 20260506114852 | 54 | 46 | 2.6 | 4.3 | 0.00 | 0.03 | 0.00 | 80 | 1010.5 |
| 20260506112852 | 54 | 232 | 0.9 | 2.6 | 0.00 | 0.03 | 0.00 | 79 | 1010.2 |
| 20260506112352 | 54 | 232 | 1.7 | 2.6 | 0.00 | 0.03 | 0.00 | 78 | 1010.2 |
| 20260506105852 | 54 | 233 | 1.7 | 4.3 | 0.00 | 0.03 | 0.00 | 77 | 1010.0 |
| 20260506104444 | 54 | 175 | 1.7 | 5.2 | 0.00 | 0.03 | 0.00 | 78 | 1009.8 |
| 20260506103944 | 54 | 169 | 2.6 | 5.2 | 0.00 | 0.03 | 0.00 | 79 | 1009.8 |
| 20260506102444 | 53 | 150 | 2.6 | 5.2 | 0.00 | 0.03 | 0.00 | 80 | 1009.6 |
| 20260506101945 | 53 | 147 | 4.3 | 6.1 | 0.00 | 0.04 | 0.00 | 80 | 1009.7 |
| 20260506095944 | 51 | 140 | 5.2 | 7.0 | 0.00 | 0.04 | 0.00 | 81 | 1009.6 |
| 20260506095444 | 51 | 140 | 6.1 | 7.8 | 0.00 | 0.04 | 0.00 | 80 | 1009.5 |
| 20260506094444 | 51 | 139 | 6.1 | 7.8 | 0.00 | 0.04 | 0.00 | 79 | 1009.5 |
| 20260506093944 | 52 | 135 | 6.1 | 7.8 | 0.00 | 0.05 | 0.00 | 78 | 1009.5 |
| 20260506092944 | 52 | 130 | 7.0 | 7.8 | 0.00 | 0.07 | 0.00 | 79 | 1009.5 |
| 20260506091239 | 52 | 128 | 7.0 | 8.7 | 0.00 | 0.10 | 0.00 | 79 | 1009.4 |
| 20260506090737 | 52 | 130 | 7.0 | 8.7 | 0.00 | 0.11 | 0.00 | 79 | 1009.4 |
| 20260506090237 | 52 | 129 | 6.1 | 8.7 | 0.00 | 0.11 | 0.00 | 79 | 1009.4 |
| 20260506085349 | 52 | 131 | 7.0 | 7.8 | 0.00 | 0.12 | 0.00 | 80 | 1009.5 |
| 20260506084349 | 51 | 121 | 6.1 | 8.7 | 0.00 | 0.12 | 0.00 | 81 | 1009.5 |
| 20260506083849 | 50 | 121 | 7.0 | 8.7 | 0.00 | 0.12 | 0.00 | 83 | 1009.5 |
| 20260506083349 | 49 | 130 | 6.1 | 7.0 | 0.00 | 0.12 | 0.00 | 83 | 1009.6 |
| 20260506081850 | 49 | 137 | 4.3 | 6.1 | 0.00 | 0.12 | 0.00 | 83 | 1009.5 |
| 20260506080349 | 50 | 113 | 7.0 | 7.8 | 0.00 | 0.12 | 0.00 | 81 | 1009.5 |
| 20260506072121 | 53 | 112 | 6.1 | 8.7 | 0.00 | 0.12 | 0.00 | 74 | 1009.2 |
| 20260506070121 | 53 | 113 | 7.0 | 10.4 | 0.00 | 0.12 | 0.00 | 74 | 1009.1 |
| 20260506060623 | 52 | 129 | 5.2 | 7.0 | 0.00 | 0.12 | 0.00 | 77 | 1008.5 |
| 20260506051121 | 53 | 130 | 5.2 | 6.1 | 0.00 | 0.12 | 0.00 | 78 | 1008.2 |
| 20260506050621 | 54 | 121 | 3.5 | 6.1 | 0.00 | 0.12 | 0.00 | 78 | 1008.2 |
| 20260506044621 | 54 | 108 | 2.6 | 5.2 | 0.00 | 0.12 | 0.00 | 82 | 1008.0 |
| 20260506043121 | 55 | 107 | 1.7 | 3.5 | 0.00 | 0.12 | 0.00 | 84 | 1007.9 |
| 20260506042621 | 55 | 107 | 1.7 | 2.6 | 0.00 | 0.12 | 0.00 | 84 | 1007.8 |
| 20260506041121 | 54 | 107 | 0.9 | 5.2 | 0.00 | 0.12 | 0.00 | 84 | 1007.6 |
| 20260506035621 | 55 | 87 | 3.5 | 5.2 | 0.00 | 0.12 | 0.00 | 80 | 1007.4 |
| 20260506034621 | 57 | 74 | 2.6 | 5.2 | 0.00 | 0.12 | 0.00 | 74 | 1007.2 |
| 20260506034121 | 58 | 71 | 2.6 | 5.2 | 0.00 | 0.12 | 0.00 | 72 | 1007.2 |
| 20260506031915 | 59 | 60 | 2.6 | 4.3 | 0.00 | 0.12 | 0.00 | 70 | 1006.9 |
| 20260506024914 | 59 | 55 | 2.6 | 4.3 | 0.00 | 0.12 | 0.00 | 69 | 1006.6 |
| 20260506023913 | 59 | 56 | 2.6 | 4.3 | 0.00 | 0.12 | 0.00 | 69 | 1006.4 |
| 20260506020114 | 59 | 60 | 2.6 | 4.3 | 0.00 | 0.12 | 0.00 | 69 | 1006.3 |
| 20260506014614 | 59 | 49 | 2.6 | 4.3 | 0.00 | 0.12 | 0.00 | 70 | 1006.2 |
| 20260506011330 | 59 | 37 | 4.3 | 7.0 | 0.00 | 0.12 | 0.00 | 68 | 1006.1 |
| 20260506005329 | 59 | 41 | 3.5 | 5.2 | 0.00 | 0.12 | 0.00 | 69 | 1006.1 |
| 20260506004039 | 59 | 30 | 3.5 | 7.0 | 0.00 | 0.12 | 0.00 | 71 | 1006.1 |
| 20260505225957 | 60 | 20 | 6.1 | 9.6 | 0.00 | 0.12 | 0.00 | 74 | 1005.9 |
| 20260505223500 | 61 | 0 | 0.0 | 5.2 | 0.00 | 0.12 | 0.00 | 72 | 1006.2 |
| 20260505221959 | 59 | 0 | 0.0 | 4.3 | 0.00 | 0.12 | 0.00 | 75 | 1006.5 |
| 20260505221459 | 59 | 129 | 1.7 | 4.3 | 0.00 | 0.12 | 0.00 | 76 | 1006.5 |
| 20260505213916 | 56 | 40 | 2.6 | 4.3 | 0.00 | 0.12 | 0.00 | 86 | 1006.9 |
| 20260505213416 | 55 | 39 | 1.7 | 4.3 | 0.00 | 0.12 | 0.00 | 86 | 1007.1 |
| 20260505211514 | 55 | 19 | 2.6 | 6.1 | 0.00 | 0.12 | 0.00 | 87 | 1007.3 |
| 20260505211014 | 55 | 11 | 2.6 | 6.1 | 0.00 | 0.12 | 0.00 | 87 | 1007.3 |
| 20260505210514 | 56 | 29 | 2.6 | 5.2 | 0.00 | 0.12 | 0.00 | 87 | 1007.3 |
| 20260505205014 | 55 | 55 | 2.6 | 7.0 | 0.00 | 0.12 | 0.00 | 86 | 1007.3 |
| 20260505204514 | 55 | 47 | 3.5 | 5.2 | 0.00 | 0.12 | 0.00 | 85 | 1007.3 |
| 20260505204014 | 56 | 16 | 2.6 | 4.3 | 0.00 | 0.12 | 0.00 | 83 | 1007.3 |
| 20260505201514 | 55 | 233 | 1.7 | 3.5 | 0.00 | 0.12 | 0.00 | 83 | 1007.2 |
| 20260505200014 | 55 | 222 | 3.5 | 7.0 | 0.00 | 0.12 | 0.00 | 85 | 1007.3 |
| 20260505193714 | 54 | 236 | 4.3 | 7.0 | 0.00 | 0.12 | 0.00 | 88 | 1007.5 |
| 20260505193214 | 54 | 218 | 4.3 | 7.0 | 0.00 | 0.12 | 0.00 | 88 | 1007.5 |
| 20260505192714 | 54 | 219 | 5.2 | 8.7 | 0.00 | 0.12 | 0.00 | 88 | 1007.4 |
| 20260505191214 | 53 | 230 | 4.3 | 9.6 | 0.00 | 0.12 | 0.00 | 90 | 1007.4 |
| 20260505190715 | 53 | 232 | 4.3 | 9.6 | 0.00 | 0.12 | 0.00 | 91 | 1007.4 |
| 20260505184714 | 53 | 232 | 4.3 | 8.7 | 0.01 | 0.12 | 0.12 | 92 | 1007.5 |
| 20260505183714 | 52 | 234 | 4.3 | 7.0 | 0.02 | 0.12 | 0.12 | 92 | 1007.4 |
| 20260505182551 | 52 | 228 | 5.2 | 7.0 | 0.02 | 0.12 | 0.12 | 93 | 1007.4 |
| 20260505181052 | 51 | 226 | 6.1 | 10.4 | 0.03 | 0.12 | 0.12 | 92 | 1007.4 |
| 20260505173051 | 51 | 233 | 6.1 | 10.4 | 0.01 | 0.10 | 0.10 | 92 | 1006.9 |
| 20260505172051 | 51 | 236 | 7.0 | 9.6 | 0.01 | 0.10 | 0.10 | 92 | 1006.9 |
| 20260505171551 | 51 | 256 | 6.1 | 11.3 | 0.00 | 0.09 | 0.09 | 92 | 1006.9 |
| 20260505170355 | 51 | 241 | 8.7 | 11.3 | 0.00 | 0.09 | 0.09 | 91 | 1006.8 |
| 20260505165355 | 51 | 229 | 5.2 | 9.6 | 0.00 | 0.09 | 0.09 | 91 | 1006.7 |
| 20260505164354 | 51 | 233 | 6.1 | 10.4 | 0.00 | 0.09 | 0.09 | 91 | 1006.6 |
| 20260505163355 | 51 | 223 | 6.1 | 12.2 | 0.00 | 0.09 | 0.09 | 91 | 1006.4 |
| 20260505161355 | 51 | 226 | 7.8 | 14.8 | 0.00 | 0.09 | 0.09 | 88 | 1006.2 |
| 20260505151904 | 52 | 245 | 3.5 | 8.7 | 0.00 | 0.09 | 0.09 | 87 | 1005.6 |
| 20260505150404 | 52 | 230 | 4.3 | 7.0 | 0.00 | 0.09 | 0.09 | 88 | 1005.4 |
| 20260505140638 | 52 | 239 | 6.1 | 8.7 | 0.00 | 0.09 | 0.09 | 88 | 1005.1 |
| 20260505130231 | 51 | 0 | 0.0 | 1.7 | 0.00 | 0.09 | 0.09 | 88 | 1004.7 |